Impacts TAF Board INFO
FOR SITUATIONAL AWARENESS. NOT TO BE USED FOR FLIGHT PLANNING PURPOSES.
IDs:

KEAU - Eau Claire/Chippewa, WI, US

Issued at 2330 UTC 17 Oct 2017
Updated at 0352 UTC 18 Oct 2017
Potential Impact None Slight Moderate High
Time<<18/16Z 18/17Z 18/18Z 18/19Z 18/20Z 18/21Z 18/22Z 18/23Z 19/00Z 19/01Z 19/02Z 19/03Z 19/04Z>>
Type PRVL PRVL PRVL PRVL PRVL PRVL PRVL PRVL
VIS >6 >6 >6 >6 >6 >6 >6 >6
CIG -- -- -- -- -- -- -- --
Cover FEW FEW FEW FEW FEW FEW FEW FEW
FltCat VFR VFR VFR VFR VFR VFR VFR VFR
WX -- -- -- -- -- -- -- --
WDir 180 180 180 180 220 220 220 220
WSpd 10 10 10 10 12 12 12 12
WGst -- -- -- -- 22 22 22 22

Raw TAF
KEAU 172330Z 1800/1824 20006KT P6SM SKC
  FM181600 18010KT P6SM FEW250
  FM182000 22012G22KT P6SM FEW250


METAR Board
Radar Display
Forecast Discussion

FOR SITUATIONAL AWARENESS. NOT TO BE USED FOR FLIGHT PLANNING PURPOSES.